createdAt,value
2023-06-30T00:01:36.192Z,5.95
2023-06-30T00:04:03.691Z,5.05
2023-06-30T00:06:31.037Z,5.32
2023-06-30T00:08:58.636Z,7.07
2023-06-30T00:11:25.928Z,9.70
2023-06-30T00:13:53.677Z,5.60
2023-06-30T00:16:22.162Z,4.10
2023-06-30T00:18:49.452Z,5.72
2023-06-30T00:21:17.080Z,8.57
2023-06-30T00:23:44.462Z,5.97
2023-06-30T00:26:11.667Z,6.65
2023-06-30T00:28:38.857Z,5.38
2023-06-30T00:31:06.087Z,6.38
2023-06-30T00:33:33.285Z,7.32
2023-06-30T00:36:00.677Z,5.22
2023-06-30T00:38:27.868Z,5.78
2023-06-30T00:40:55.066Z,6.15
2023-06-30T00:43:22.192Z,7.18
2023-06-30T00:45:49.396Z,6.88
2023-06-30T00:48:18.530Z,6.40
2023-06-30T00:50:45.895Z,8.93
2023-06-30T00:53:14.308Z,4.10
2023-06-30T00:55:47.915Z,5.57
2023-06-30T00:58:15.320Z,4.85
2023-06-30T01:00:42.553Z,3.72
2023-06-30T01:03:28.886Z,5.63
2023-06-30T01:05:58.650Z,7.63
2023-06-30T01:08:32.671Z,5.13
2023-06-30T01:11:00.034Z,8.45
2023-06-30T01:13:27.328Z,5.75
2023-06-30T01:15:55.904Z,6.63
2023-06-30T01:18:23.872Z,5.60
2023-06-30T01:20:51.948Z,3.40
2023-06-30T01:23:28.398Z,6.13
2023-06-30T01:25:55.958Z,7.07
2023-06-30T01:28:23.293Z,4.95
2023-06-30T01:30:51.344Z,3.85
2023-06-30T01:33:18.720Z,4.40
2023-06-30T01:35:46.149Z,9.52
2023-06-30T01:38:16.371Z,4.45
2023-06-30T01:40:43.601Z,5.20
2023-06-30T01:43:10.840Z,5.30
2023-06-30T01:45:38.144Z,5.45
2023-06-30T01:48:05.648Z,8.48
2023-06-30T01:50:34.246Z,5.25
2023-06-30T01:53:01.676Z,6.88
2023-06-30T01:55:28.882Z,5.75
2023-06-30T01:57:56.105Z,8.00
2023-06-30T02:00:23.316Z,4.97
2023-06-30T02:02:50.760Z,6.00
2023-06-30T02:05:19.277Z,6.47
2023-06-30T02:07:46.525Z,4.78
2023-06-30T02:10:14.205Z,5.00
2023-06-30T02:12:41.354Z,4.78
2023-06-30T02:15:10.110Z,3.35
2023-06-30T02:22:35.116Z,6.90
2023-06-30T02:25:02.294Z,7.53
2023-06-30T02:27:31.168Z,7.35
2023-06-30T02:30:06.153Z,4.72
2023-06-30T02:32:34.251Z,5.63
2023-06-30T02:35:01.668Z,6.18
2023-06-30T02:37:28.855Z,4.05
2023-06-30T02:39:55.995Z,3.58
2023-06-30T02:42:23.182Z,6.07
2023-06-30T02:44:50.328Z,6.05
2023-06-30T02:47:20.246Z,3.70
2023-06-30T02:49:47.415Z,5.15
2023-06-30T02:52:14.656Z,3.88
2023-06-30T02:54:41.831Z,3.78
2023-06-30T02:57:08.979Z,4.05
2023-06-30T02:59:36.133Z,7.32
2023-06-30T03:02:04.117Z,4.47
2023-06-30T03:04:32.724Z,5.72
2023-06-30T03:06:59.944Z,5.30
2023-06-30T03:09:27.212Z,10.13
2023-06-30T03:11:54.405Z,4.45
2023-06-30T03:14:21.674Z,6.00
2023-06-30T03:16:48.871Z,5.80
2023-06-30T03:19:17.431Z,4.65
2023-06-30T03:21:44.683Z,4.25
2023-06-30T03:24:11.856Z,4.25
2023-06-30T03:26:39.042Z,3.92
2023-06-30T03:29:06.210Z,4.95
2023-06-30T03:31:33.577Z,4.13
2023-06-30T03:34:01.128Z,3.88
2023-06-30T03:36:28.269Z,5.07
2023-06-30T03:38:55.572Z,4.32
2023-06-30T03:41:22.779Z,5.30
2023-06-30T03:43:49.973Z,4.70
2023-06-30T03:46:17.172Z,5.38
2023-06-30T03:48:44.477Z,6.57
2023-06-30T03:51:11.688Z,4.38
2023-06-30T03:53:38.887Z,4.68
2023-06-30T03:56:06.247Z,7.07
2023-06-30T03:58:33.497Z,4.57
2023-06-30T04:01:00.892Z,5.43
2023-06-30T04:03:28.564Z,4.38
2023-06-30T04:05:55.973Z,5.93
2023-06-30T04:08:23.287Z,4.18
2023-06-30T04:10:50.599Z,3.47
2023-06-30T04:13:17.821Z,6.63
2023-06-30T04:15:45.250Z,4.20
2023-06-30T04:18:12.821Z,5.53
2023-06-30T04:20:40.070Z,3.75
2023-06-30T04:23:07.429Z,4.25
2023-06-30T04:25:34.640Z,4.30
2023-06-30T04:28:01.857Z,4.28
2023-06-30T04:30:29.095Z,4.60
2023-06-30T04:32:56.374Z,4.97
2023-06-30T04:35:26.457Z,4.57
2023-06-30T04:37:54.130Z,5.88
2023-06-30T04:40:21.569Z,5.95
2023-06-30T04:42:48.843Z,5.25
2023-06-30T04:45:17.220Z,8.70
2023-06-30T04:47:46.306Z,5.22
2023-06-30T04:50:13.574Z,5.63
2023-06-30T04:52:40.813Z,7.68
2023-06-30T04:55:08.122Z,4.25
2023-06-30T04:57:35.249Z,4.90
2023-06-30T05:00:03.027Z,4.72
2023-06-30T05:02:51.482Z,6.63
2023-06-30T05:05:18.868Z,4.25
2023-06-30T05:07:46.877Z,6.20
2023-06-30T05:10:14.105Z,7.55
2023-06-30T05:12:41.260Z,4.63
2023-06-30T05:15:09.126Z,8.25
2023-06-30T05:17:36.479Z,6.50
2023-06-30T05:20:06.400Z,6.15
2023-06-30T05:22:33.863Z,6.07
2023-06-30T05:25:01.239Z,4.80
2023-06-30T05:27:28.464Z,5.47
2023-06-30T05:29:55.593Z,4.65
2023-06-30T05:32:23.822Z,7.30
2023-06-30T05:34:51.615Z,5.38
2023-06-30T05:37:18.792Z,7.43
2023-06-30T05:39:45.973Z,5.30
2023-06-30T05:42:13.161Z,5.40
2023-06-30T05:44:40.411Z,4.00
2023-06-30T05:47:07.857Z,4.22
2023-06-30T05:49:35.031Z,7.90
2023-06-30T05:52:02.259Z,6.53
2023-06-30T05:54:29.685Z,7.20
2023-06-30T05:56:56.897Z,5.80
2023-06-30T05:59:24.157Z,6.05
2023-06-30T06:01:53.061Z,6.13
2023-06-30T06:04:21.214Z,5.68
2023-06-30T06:06:48.510Z,6.65
2023-06-30T06:09:15.826Z,4.00
2023-06-30T06:11:44.520Z,4.43
2023-06-30T06:16:39.048Z,4.85
2023-06-30T06:19:06.336Z,5.90
2023-06-30T06:21:33.577Z,6.65
2023-06-30T06:24:00.781Z,6.85
2023-06-30T06:26:28.062Z,3.67
2023-06-30T06:28:55.328Z,7.68
2023-06-30T06:31:25.762Z,4.90
2023-06-30T06:33:55.753Z,4.75
2023-06-30T06:36:23.290Z,4.05
2023-06-30T06:38:50.481Z,5.05
2023-06-30T06:41:19.455Z,4.50
2023-06-30T06:43:46.593Z,8.00
2023-06-30T06:46:13.810Z,4.22
2023-06-30T06:48:41.055Z,5.43
2023-06-30T06:51:08.582Z,4.28
2023-06-30T06:53:36.436Z,4.68
2023-06-30T06:56:04.474Z,4.75
2023-06-30T06:58:32.497Z,5.78
2023-06-30T07:01:00.037Z,7.95
2023-06-30T07:03:27.375Z,3.20
2023-06-30T07:05:56.370Z,7.68
2023-06-30T07:08:23.625Z,5.40
2023-06-30T07:10:51.603Z,3.60
2023-06-30T07:13:19.941Z,4.57
2023-06-30T07:15:51.644Z,5.30
2023-06-30T07:18:20.228Z,6.07
2023-06-30T07:20:48.350Z,3.45
2023-06-30T07:23:15.749Z,5.30
2023-06-30T07:25:43.315Z,4.57
2023-06-30T07:28:10.620Z,7.93
2023-06-30T07:30:37.932Z,3.33
2023-06-30T07:33:05.201Z,3.00
2023-06-30T07:35:32.427Z,4.57
2023-06-30T07:37:59.570Z,4.13
2023-06-30T07:40:28.235Z,3.58
2023-06-30T07:42:57.481Z,6.43
2023-06-30T07:45:24.681Z,4.85
2023-06-30T07:47:51.929Z,4.00
2023-06-30T07:50:19.305Z,4.13
2023-06-30T07:52:49.195Z,3.70
2023-06-30T07:55:17.489Z,4.22
2023-06-30T07:57:45.309Z,2.90
2023-06-30T08:00:19.896Z,4.80
2023-06-30T08:02:47.832Z,3.60
2023-06-30T08:05:15.775Z,3.90
2023-06-30T08:07:50.495Z,3.00
2023-06-30T08:10:19.116Z,3.88
2023-06-30T08:12:46.465Z,4.97
2023-06-30T08:15:13.684Z,3.33
2023-06-30T08:17:51.306Z,5.25
2023-06-30T08:20:23.145Z,4.15
2023-06-30T08:22:50.404Z,4.57
2023-06-30T08:25:17.733Z,5.97
2023-06-30T08:27:44.918Z,4.05
2023-06-30T08:30:12.247Z,3.00
2023-06-30T08:32:39.524Z,6.72
2023-06-30T08:35:06.968Z,3.63
2023-06-30T08:37:34.280Z,3.50
2023-06-30T08:40:04.344Z,2.95
2023-06-30T08:42:32.724Z,3.60
2023-06-30T08:44:59.920Z,4.85
2023-06-30T08:47:29.649Z,2.83
2023-06-30T08:49:57.452Z,2.80
2023-06-30T08:52:24.683Z,2.90
2023-06-30T08:54:52.030Z,4.53
2023-06-30T08:57:19.550Z,5.72
2023-06-30T08:59:46.962Z,2.90
2023-06-30T09:02:14.199Z,3.67
2023-06-30T09:04:41.875Z,5.10
2023-06-30T09:07:14.826Z,3.92
2023-06-30T09:09:46.891Z,4.03
2023-06-30T09:12:14.849Z,3.22
2023-06-30T09:14:42.644Z,7.25
2023-06-30T09:17:09.889Z,3.85
2023-06-30T09:19:37.242Z,3.53
2023-06-30T09:22:52.030Z,3.70
2023-06-30T09:24:54.068Z,4.90
2023-06-30T09:27:21.464Z,7.65
2023-06-30T09:29:57.824Z,4.68
2023-06-30T09:32:32.583Z,3.33
2023-06-30T09:35:08.762Z,4.15
2023-06-30T09:37:45.725Z,2.45
2023-06-30T09:40:14.212Z,2.70
2023-06-30T09:42:42.381Z,6.32
2023-06-30T09:45:09.766Z,4.10
2023-06-30T09:47:37.051Z,3.85
2023-06-30T09:50:05.855Z,5.60
2023-06-30T09:52:37.471Z,4.35
2023-06-30T09:55:10.098Z,5.82
2023-06-30T09:57:44.959Z,3.83
2023-06-30T10:00:33.757Z,3.78
2023-06-30T10:03:06.856Z,5.43
2023-06-30T10:05:34.167Z,2.35
2023-06-30T10:08:01.769Z,4.13
2023-06-30T10:10:29.830Z,4.15
2023-06-30T10:12:58.046Z,5.72
2023-06-30T10:15:25.383Z,4.60
2023-06-30T10:17:53.510Z,3.30
2023-06-30T10:20:25.491Z,3.78
2023-06-30T10:23:01.654Z,4.38
2023-06-30T10:25:29.582Z,5.15
2023-06-30T10:27:57.006Z,12.45
2023-06-30T10:30:24.682Z,4.25
2023-06-30T10:32:51.894Z,10.25
2023-06-30T10:35:19.994Z,4.45
2023-06-30T10:37:47.458Z,4.68
2023-06-30T10:40:30.526Z,11.70
2023-06-30T10:42:58.524Z,6.40
2023-06-30T10:45:29.555Z,5.47
2023-06-30T10:47:56.830Z,4.18
2023-06-30T10:50:24.779Z,2.53
2023-06-30T10:52:52.688Z,3.72
2023-06-30T10:55:23.881Z,6.57
2023-06-30T10:57:52.318Z,3.45
2023-06-30T11:00:20.494Z,3.28
2023-06-30T11:02:49.646Z,6.85
2023-06-30T11:05:27.489Z,5.22
2023-06-30T11:07:55.876Z,3.55
2023-06-30T11:10:36.723Z,4.22
2023-06-30T11:13:05.047Z,5.13
2023-06-30T11:15:36.237Z,6.38
2023-06-30T11:18:10.032Z,2.80
2023-06-30T11:20:37.856Z,4.68
2023-06-30T11:23:17.031Z,5.75
2023-06-30T11:25:44.225Z,4.18
2023-06-30T11:28:13.265Z,6.82
2023-06-30T11:30:40.901Z,4.97
2023-06-30T11:33:08.672Z,6.70
2023-06-30T11:35:36.849Z,5.63
2023-06-30T11:38:04.596Z,5.38
2023-06-30T11:40:31.800Z,4.65
2023-06-30T11:42:58.971Z,5.63
2023-06-30T11:45:28.939Z,5.07
2023-06-30T11:47:57.239Z,5.70
2023-06-30T11:50:26.408Z,4.25
2023-06-30T11:52:53.750Z,7.43
2023-06-30T11:55:21.354Z,7.05
2023-06-30T11:57:48.758Z,6.20
2023-06-30T12:00:21.147Z,4.70
2023-06-30T12:02:52.891Z,6.15
2023-06-30T12:05:25.101Z,4.85
2023-06-30T12:07:55.222Z,3.65
2023-06-30T12:10:37.821Z,8.95
2023-06-30T12:13:07.221Z,4.15
2023-06-30T12:15:34.539Z,8.68
2023-06-30T12:18:05.558Z,4.07
2023-06-30T12:20:37.601Z,4.68
2023-06-30T12:23:08.659Z,3.78
2023-06-30T12:25:37.313Z,4.00
2023-06-30T12:32:59.684Z,3.30
2023-06-30T12:35:34.039Z,4.32
2023-06-30T12:38:01.769Z,4.72
2023-06-30T12:40:32.533Z,8.07
2023-06-30T12:42:59.870Z,3.05
2023-06-30T12:45:27.124Z,9.30
2023-06-30T12:47:54.554Z,4.70
2023-06-30T12:50:21.806Z,3.67
2023-06-30T12:52:49.239Z,4.70
2023-06-30T12:55:16.609Z,5.78
2023-06-30T12:57:43.853Z,5.30
2023-06-30T13:00:11.390Z,4.05
2023-06-30T13:02:39.053Z,4.00
2023-06-30T13:05:07.612Z,5.53
2023-06-30T13:07:35.407Z,3.85
2023-06-30T13:10:06.144Z,7.32
2023-06-30T13:12:33.434Z,4.70
2023-06-30T13:15:01.176Z,9.15
2023-06-30T13:17:28.397Z,4.45
2023-06-30T13:19:55.565Z,4.97
2023-06-30T13:22:22.701Z,3.50
2023-06-30T13:24:50.849Z,5.38
2023-06-30T13:27:18.189Z,8.27
2023-06-30T13:29:48.397Z,6.18
2023-06-30T13:32:15.873Z,3.25
2023-06-30T13:34:43.132Z,3.25
2023-06-30T13:37:10.344Z,3.47
2023-06-30T13:39:37.884Z,3.97
2023-06-30T13:42:05.889Z,7.00
2023-06-30T13:44:33.290Z,6.00
2023-06-30T13:47:00.560Z,4.63
2023-06-30T13:49:27.728Z,4.43
2023-06-30T13:51:55.440Z,8.73
2023-06-30T13:54:25.719Z,8.50
2023-06-30T13:56:53.956Z,5.53
2023-06-30T13:59:21.733Z,4.53
2023-06-30T14:01:49.009Z,4.95
2023-06-30T14:04:16.363Z,5.85
2023-06-30T14:06:43.666Z,6.20
2023-06-30T14:09:12.067Z,5.57
2023-06-30T14:11:39.892Z,6.40
2023-06-30T14:14:07.250Z,6.10
2023-06-30T14:16:36.110Z,7.35
2023-06-30T14:19:04.778Z,4.30
2023-06-30T14:21:32.488Z,7.25
2023-06-30T14:24:00.135Z,7.25
2023-06-30T14:26:27.391Z,7.35
2023-06-30T14:28:54.922Z,4.88
2023-06-30T14:31:22.282Z,4.30
2023-06-30T14:33:49.748Z,9.95
2023-06-30T14:36:16.900Z,6.85
2023-06-30T14:38:44.598Z,4.70
2023-06-30T14:41:13.845Z,5.88
2023-06-30T14:43:41.012Z,4.40
2023-06-30T14:46:08.353Z,6.28
2023-06-30T14:48:35.635Z,5.15
2023-06-30T14:51:02.863Z,3.45
2023-06-30T14:53:30.132Z,3.42
2023-06-30T14:55:58.237Z,4.55
2023-06-30T14:58:25.430Z,4.95
2023-06-30T15:00:52.703Z,6.25
2023-06-30T15:03:19.908Z,6.68
2023-06-30T15:05:47.474Z,5.65
2023-06-30T15:08:14.906Z,5.63
2023-06-30T15:10:42.130Z,16.33
2023-06-30T15:13:09.440Z,25.80
2023-06-30T15:15:36.732Z,61.00
2023-06-30T15:18:03.992Z,35.47
2023-06-30T15:20:31.253Z,32.22
2023-06-30T15:22:58.923Z,39.90
2023-06-30T15:25:27.480Z,135.93
2023-06-30T15:27:55.510Z,125.93
2023-06-30T15:30:23.025Z,82.25
2023-06-30T15:32:50.874Z,78.05
2023-06-30T15:35:18.980Z,57.38
2023-06-30T15:37:46.406Z,42.40
2023-06-30T15:40:14.587Z,48.88
2023-06-30T15:42:41.778Z,47.33
2023-06-30T15:45:13.179Z,43.95
2023-06-30T15:47:40.499Z,45.17
2023-06-30T15:50:08.147Z,42.53
2023-06-30T15:52:35.313Z,53.25
2023-06-30T15:55:09.742Z,51.05
2023-06-30T15:57:37.309Z,59.72
2023-06-30T16:00:05.581Z,60.03
2023-06-30T16:02:32.851Z,61.72
2023-06-30T16:05:00.596Z,59.63
2023-06-30T16:07:27.946Z,58.75
2023-06-30T16:09:55.694Z,64.03
2023-06-30T16:12:22.891Z,60.03
2023-06-30T16:14:50.081Z,54.83
2023-06-30T16:17:17.438Z,51.47
2023-06-30T16:19:44.669Z,44.70
2023-06-30T16:22:11.902Z,49.78
2023-06-30T16:24:41.989Z,51.90
2023-06-30T16:27:14.793Z,40.58
2023-06-30T16:29:42.163Z,42.67
2023-06-30T16:32:09.523Z,38.58
2023-06-30T16:34:45.417Z,42.97
2023-06-30T16:37:12.725Z,35.70
2023-06-30T16:39:39.977Z,39.65
2023-06-30T16:42:07.413Z,28.58
2023-06-30T16:44:34.987Z,29.15
2023-06-30T16:47:02.193Z,27.60
2023-06-30T16:49:32.783Z,30.50
2023-06-30T16:51:59.994Z,23.55
2023-06-30T16:54:27.217Z,23.75
2023-06-30T16:56:54.373Z,23.20
2023-06-30T16:59:21.620Z,21.38
2023-06-30T17:01:55.688Z,24.67
2023-06-30T17:09:20.359Z,21.23
2023-06-30T17:11:47.806Z,19.80
2023-06-30T17:14:14.979Z,17.52
2023-06-30T17:16:42.358Z,18.95
2023-06-30T17:19:09.636Z,18.33
2023-06-30T17:21:40.045Z,16.77
2023-06-30T17:24:08.332Z,47.80
2023-06-30T17:26:35.681Z,18.30
2023-06-30T17:29:02.893Z,18.83
2023-06-30T17:31:31.607Z,21.33
2023-06-30T17:33:58.873Z,19.25
2023-06-30T17:36:26.041Z,20.13
2023-06-30T17:38:55.070Z,23.05
2023-06-30T17:41:22.398Z,22.35
2023-06-30T17:43:50.668Z,19.92
2023-06-30T17:46:18.050Z,18.20
2023-06-30T17:48:45.237Z,19.52
2023-06-30T17:51:13.704Z,22.98
2023-06-30T17:53:40.971Z,21.38
2023-06-30T17:56:08.205Z,20.35
2023-06-30T17:58:35.369Z,17.35
2023-06-30T18:01:02.827Z,15.23
2023-06-30T18:03:30.033Z,16.88
2023-06-30T18:05:58.675Z,15.63
2023-06-30T18:08:25.876Z,16.88
2023-06-30T18:11:08.149Z,15.80
2023-06-30T18:13:39.318Z,12.80
2023-06-30T18:16:06.762Z,15.52
2023-06-30T18:18:33.953Z,11.02
2023-06-30T18:21:01.105Z,11.70
2023-06-30T18:23:28.286Z,8.88
2023-06-30T18:25:55.854Z,9.23
2023-06-30T18:28:23.267Z,9.93
2023-06-30T18:30:50.468Z,7.85
2023-06-30T18:33:17.714Z,6.45
2023-06-30T18:35:45.165Z,5.80
2023-06-30T18:38:12.507Z,6.93
2023-06-30T18:40:39.697Z,6.00
2023-06-30T18:43:07.544Z,4.70
2023-06-30T18:45:36.551Z,5.40
2023-06-30T18:48:03.862Z,5.60
2023-06-30T18:50:31.070Z,5.53
2023-06-30T18:52:58.308Z,5.32
2023-06-30T18:55:25.468Z,5.03
2023-06-30T18:57:52.676Z,3.40
2023-06-30T19:00:19.926Z,4.45
2023-06-30T19:02:47.234Z,3.95
2023-06-30T19:05:14.579Z,4.20
2023-06-30T19:07:41.933Z,5.07
2023-06-30T19:10:10.539Z,4.78
2023-06-30T19:12:37.747Z,3.92
2023-06-30T19:15:05.128Z,4.55
2023-06-30T19:17:34.640Z,2.60
2023-06-30T19:20:02.346Z,2.85
2023-06-30T19:22:29.674Z,3.13
2023-06-30T19:24:56.846Z,3.85
2023-06-30T19:27:24.050Z,4.78
2023-06-30T19:29:51.304Z,4.18
2023-06-30T19:32:18.539Z,2.97
2023-06-30T19:34:45.910Z,4.90
2023-06-30T19:37:13.555Z,2.67
2023-06-30T19:39:42.654Z,2.30
2023-06-30T19:42:09.818Z,3.15
2023-06-30T19:44:37.075Z,3.03
2023-06-30T19:47:04.321Z,2.08
2023-06-30T19:49:31.819Z,5.18
2023-06-30T19:51:59.379Z,3.30
2023-06-30T19:54:26.602Z,2.10
2023-06-30T19:56:54.407Z,3.25
2023-06-30T19:59:21.885Z,2.70
2023-06-30T20:01:49.945Z,2.60
2023-06-30T20:04:20.126Z,4.05
2023-06-30T20:06:47.335Z,1.40
2023-06-30T20:09:14.586Z,2.95
2023-06-30T20:11:43.861Z,2.45
2023-06-30T20:14:11.141Z,6.15
2023-06-30T20:16:38.436Z,2.25
2023-06-30T20:19:06.154Z,3.05
2023-06-30T20:21:33.368Z,2.20
2023-06-30T20:24:00.620Z,5.53
2023-06-30T20:26:27.848Z,6.22
2023-06-30T20:28:54.996Z,15.27
2023-06-30T20:31:22.251Z,6.72
2023-06-30T20:33:49.518Z,4.85
2023-06-30T20:36:16.784Z,3.15
2023-06-30T20:38:44.105Z,6.45
2023-06-30T20:41:11.349Z,4.22
2023-06-30T20:43:38.689Z,3.42
2023-06-30T20:46:05.927Z,2.70
2023-06-30T20:48:33.111Z,5.45
2023-06-30T20:51:00.319Z,4.03
2023-06-30T20:53:27.503Z,5.78
2023-06-30T20:56:00.537Z,3.55
2023-06-30T20:58:27.808Z,2.15
2023-06-30T21:00:55.138Z,3.53
2023-06-30T21:03:22.341Z,7.80
2023-06-30T21:05:49.633Z,10.18
2023-06-30T21:08:16.875Z,8.45
2023-06-30T21:10:44.345Z,8.65
2023-06-30T21:13:11.795Z,20.00
2023-06-30T21:15:38.978Z,8.80
2023-06-30T21:18:07.413Z,5.88
2023-06-30T21:20:34.826Z,5.28
2023-06-30T21:23:02.118Z,10.02
2023-06-30T21:25:29.290Z,7.93
2023-06-30T21:27:56.528Z,6.57
2023-06-30T21:30:23.773Z,8.68
2023-06-30T21:32:51.050Z,7.00
2023-06-30T21:35:18.483Z,7.40
2023-06-30T21:37:45.890Z,7.45
2023-06-30T21:40:14.240Z,4.82
2023-06-30T21:42:41.412Z,5.05
2023-06-30T21:45:08.870Z,4.15
2023-06-30T21:47:36.015Z,6.25
2023-06-30T21:50:03.978Z,5.72
2023-06-30T21:52:31.366Z,4.47
2023-06-30T21:54:58.801Z,3.30
2023-06-30T21:57:26.082Z,4.57
2023-06-30T21:59:53.492Z,6.60
2023-06-30T22:02:20.811Z,5.13
2023-06-30T22:04:48.147Z,5.35
2023-06-30T22:07:15.840Z,6.55
2023-06-30T22:09:43.097Z,8.35
2023-06-30T22:12:10.476Z,3.95
2023-06-30T22:14:37.892Z,5.35
2023-06-30T22:17:05.338Z,4.15
2023-06-30T22:19:34.350Z,5.25
2023-06-30T22:22:03.199Z,5.05
2023-06-30T22:24:30.386Z,8.65
2023-06-30T22:26:57.902Z,3.90
2023-06-30T22:29:25.141Z,4.50
2023-06-30T22:31:52.339Z,5.78
2023-06-30T22:34:19.697Z,7.57
2023-06-30T22:36:46.888Z,4.55
2023-06-30T22:39:14.144Z,3.80
2023-06-30T22:41:41.371Z,7.15
2023-06-30T22:44:08.549Z,6.40
2023-06-30T22:46:35.750Z,4.95
2023-06-30T22:49:04.651Z,5.25
2023-06-30T22:51:32.029Z,6.25
2023-06-30T22:53:59.229Z,4.95
2023-06-30T22:56:26.426Z,9.05
2023-06-30T22:58:53.638Z,5.78
2023-06-30T23:01:21.103Z,5.32
2023-06-30T23:03:48.303Z,5.97
2023-06-30T23:06:15.508Z,4.82
2023-06-30T23:08:42.836Z,5.95
2023-06-30T23:11:10.024Z,3.90
2023-06-30T23:13:37.306Z,5.13
2023-06-30T23:16:04.621Z,3.20
2023-06-30T23:18:38.857Z,6.53
2023-06-30T23:21:12.566Z,4.43
2023-06-30T23:23:43.151Z,4.47
2023-06-30T23:26:11.279Z,6.78
2023-06-30T23:28:39.348Z,5.70
2023-06-30T23:31:06.734Z,6.07
2023-06-30T23:33:33.981Z,4.70
2023-06-30T23:36:01.182Z,4.57
2023-06-30T23:38:28.802Z,5.18
2023-06-30T23:40:56.122Z,6.07
2023-06-30T23:43:23.276Z,7.75
2023-06-30T23:45:50.445Z,4.95
2023-06-30T23:48:17.604Z,5.10
2023-06-30T23:50:44.991Z,4.45
2023-06-30T23:53:12.486Z,4.93
2023-06-30T23:55:39.692Z,3.80
2023-06-30T23:58:06.952Z,4.80
